sensor_id;sensor_type;location;lat;lon;timestamp;temperature;humidity
43810;DHT22;29440;48.208;11.162;2023-02-28T00:01:21;-1.80;99.90
43810;DHT22;29440;48.208;11.162;2023-02-28T00:03:46;-1.80;99.90
43810;DHT22;29440;48.208;11.162;2023-02-28T00:06:12;-1.80;99.90
43810;DHT22;29440;48.208;11.162;2023-02-28T00:08:38;-1.90;99.90
43810;DHT22;29440;48.208;11.162;2023-02-28T00:11:12;-1.90;99.90
43810;DHT22;29440;48.208;11.162;2023-02-28T00:13:41;-2.00;99.90
43810;DHT22;29440;48.208;11.162;2023-02-28T00:16:10;-2.20;99.90
43810;DHT22;29440;48.208;11.162;2023-02-28T00:18:37;-2.00;99.90
43810;DHT22;29440;48.208;11.162;2023-02-28T00:21:03;-2.00;99.90
43810;DHT22;29440;48.208;11.162;2023-02-28T00:23:29;-2.00;99.90
43810;DHT22;29440;48.208;11.162;2023-02-28T00:25:55;-2.10;99.90
43810;DHT22;29440;48.208;11.162;2023-02-28T00:28:21;-2.10;99.90
43810;DHT22;29440;48.208;11.162;2023-02-28T00:30:47;-2.10;99.90
43810;DHT22;29440;48.208;11.162;2023-02-28T00:33:13;-2.00;99.90
43810;DHT22;29440;48.208;11.162;2023-02-28T00:35:38;-2.10;99.90
43810;DHT22;29440;48.208;11.162;2023-02-28T00:38:04;-2.00;99.90
43810;DHT22;29440;48.208;11.162;2023-02-28T00:40:30;-2.10;99.90
43810;DHT22;29440;48.208;11.162;2023-02-28T00:42:55;-2.20;99.90
43810;DHT22;29440;48.208;11.162;2023-02-28T00:45:21;-2.20;99.90
43810;DHT22;29440;48.208;11.162;2023-02-28T00:47:46;-2.20;99.90
43810;DHT22;29440;48.208;11.162;2023-02-28T00:50:17;-2.20;99.90
43810;DHT22;29440;48.208;11.162;2023-02-28T00:52:42;-2.20;99.90
43810;DHT22;29440;48.208;11.162;2023-02-28T00:55:08;-2.20;99.90
43810;DHT22;29440;48.208;11.162;2023-02-28T00:57:34;-2.20;99.90
43810;DHT22;29440;48.208;11.162;2023-02-28T00:59:59;-2.30;99.90
43810;DHT22;29440;48.208;11.162;2023-02-28T01:02:25;-2.30;99.90
43810;DHT22;29440;48.208;11.162;2023-02-28T01:04:51;-2.30;99.90
43810;DHT22;29440;48.208;11.162;2023-02-28T01:07:16;-2.30;99.90
43810;DHT22;29440;48.208;11.162;2023-02-28T01:09:42;-2.20;99.90
43810;DHT22;29440;48.208;11.162;2023-02-28T01:12:08;-2.30;99.90
43810;DHT22;29440;48.208;11.162;2023-02-28T01:14:34;-2.40;99.90
43810;DHT22;29440;48.208;11.162;2023-02-28T01:17:01;-2.40;99.90
43810;DHT22;29440;48.208;11.162;2023-02-28T01:19:27;-2.40;99.90
43810;DHT22;29440;48.208;11.162;2023-02-28T01:21:53;-2.40;99.90
43810;DHT22;29440;48.208;11.162;2023-02-28T01:24:19;-2.30;99.90
43810;DHT22;29440;48.208;11.162;2023-02-28T01:26:45;-2.40;99.90
43810;DHT22;29440;48.208;11.162;2023-02-28T01:29:10;-2.50;99.90
43810;DHT22;29440;48.208;11.162;2023-02-28T01:31:39;-2.50;99.90
43810;DHT22;29440;48.208;11.162;2023-02-28T01:34:05;-2.60;99.90
43810;DHT22;29440;48.208;11.162;2023-02-28T01:36:31;-2.50;99.90
43810;DHT22;29440;48.208;11.162;2023-02-28T01:38:56;-2.40;99.90
43810;DHT22;29440;48.208;11.162;2023-02-28T01:41:28;-2.50;99.90
43810;DHT22;29440;48.208;11.162;2023-02-28T01:46:19;-2.60;99.90
43810;DHT22;29440;48.208;11.162;2023-02-28T01:48:53;-2.60;99.90
43810;DHT22;29440;48.208;11.162;2023-02-28T01:51:52;-2.70;99.90
43810;DHT22;29440;48.208;11.162;2023-02-28T01:54:29;-2.70;99.90
43810;DHT22;29440;48.208;11.162;2023-02-28T01:57:03;-2.70;99.90
43810;DHT22;29440;48.208;11.162;2023-02-28T01:59:34;-2.70;99.90
43810;DHT22;29440;48.208;11.162;2023-02-28T02:02:06;-2.70;99.90
43810;DHT22;29440;48.208;11.162;2023-02-28T02:04:38;-2.80;99.90
43810;DHT22;29440;48.208;11.162;2023-02-28T02:07:05;-2.80;99.90
43810;DHT22;29440;48.208;11.162;2023-02-28T02:09:31;-2.80;99.90
43810;DHT22;29440;48.208;11.162;2023-02-28T02:11:57;-2.80;99.90
43810;DHT22;29440;48.208;11.162;2023-02-28T02:14:38;-2.90;99.90
43810;DHT22;29440;48.208;11.162;2023-02-28T02:17:18;-2.90;99.90
43810;DHT22;29440;48.208;11.162;2023-02-28T02:20:00;-2.90;99.90
43810;DHT22;29440;48.208;11.162;2023-02-28T02:25:18;-3.00;99.90
43810;DHT22;29440;48.208;11.162;2023-02-28T02:33:32;-3.00;99.90
43810;DHT22;29440;48.208;11.162;2023-02-28T02:38:41;-3.10;99.90
43810;DHT22;29440;48.208;11.162;2023-02-28T02:41:34;-3.10;99.90
43810;DHT22;29440;48.208;11.162;2023-02-28T02:44:11;-3.10;99.90
43810;DHT22;29440;48.208;11.162;2023-02-28T02:46:43;-3.10;99.90
43810;DHT22;29440;48.208;11.162;2023-02-28T02:49:15;-3.10;99.90
43810;DHT22;29440;48.208;11.162;2023-02-28T02:51:42;-3.10;99.90
43810;DHT22;29440;48.208;11.162;2023-02-28T02:56:36;-3.10;99.90
43810;DHT22;29440;48.208;11.162;2023-02-28T02:59:08;-3.10;99.90
43810;DHT22;29440;48.208;11.162;2023-02-28T03:01:35;-3.10;99.90
43810;DHT22;29440;48.208;11.162;2023-02-28T03:04:12;-3.20;99.90
43810;DHT22;29440;48.208;11.162;2023-02-28T03:06:39;-3.10;99.90
43810;DHT22;29440;48.208;11.162;2023-02-28T03:09:05;-3.10;99.90
43810;DHT22;29440;48.208;11.162;2023-02-28T03:11:31;-3.20;99.90
43810;DHT22;29440;48.208;11.162;2023-02-28T03:14:20;-3.20;99.90
43810;DHT22;29440;48.208;11.162;2023-02-28T03:17:19;-3.20;99.90
43810;DHT22;29440;48.208;11.162;2023-02-28T03:19:53;-3.20;99.90
43810;DHT22;29440;48.208;11.162;2023-02-28T03:22:46;-3.20;99.90
43810;DHT22;29440;48.208;11.162;2023-02-28T03:25:23;-3.30;99.90
43810;DHT22;29440;48.208;11.162;2023-02-28T03:28:03;-3.20;99.90
43810;DHT22;29440;48.208;11.162;2023-02-28T03:30:52;-3.20;99.90
43810;DHT22;29440;48.208;11.162;2023-02-28T03:33:24;-3.20;99.90
43810;DHT22;29440;48.208;11.162;2023-02-28T03:35:58;-3.20;99.90
43810;DHT22;29440;48.208;11.162;2023-02-28T03:38:42;-3.20;99.90
43810;DHT22;29440;48.208;11.162;2023-02-28T03:41:23;-3.20;99.90
43810;DHT22;29440;48.208;11.162;2023-02-28T03:43:56;-3.10;99.90
43810;DHT22;29440;48.208;11.162;2023-02-28T03:46:24;-3.30;99.90
43810;DHT22;29440;48.208;11.162;2023-02-28T03:49:01;-3.20;99.90
43810;DHT22;29440;48.208;11.162;2023-02-28T03:51:27;-3.30;99.90
43810;DHT22;29440;48.208;11.162;2023-02-28T03:53:57;-3.20;99.90
43810;DHT22;29440;48.208;11.162;2023-02-28T03:56:34;-3.20;99.90
43810;DHT22;29440;48.208;11.162;2023-02-28T03:59:24;-3.20;99.90
43810;DHT22;29440;48.208;11.162;2023-02-28T04:01:52;-3.20;99.90
43810;DHT22;29440;48.208;11.162;2023-02-28T04:04:18;-3.20;99.90
43810;DHT22;29440;48.208;11.162;2023-02-28T04:06:44;-3.20;99.90
43810;DHT22;29440;48.208;11.162;2023-02-28T04:09:13;-3.10;99.90
43810;DHT22;29440;48.208;11.162;2023-02-28T04:14:10;-3.00;99.90
43810;DHT22;29440;48.208;11.162;2023-02-28T04:16:41;-3.00;99.90
43810;DHT22;29440;48.208;11.162;2023-02-28T04:19:08;-3.00;99.90
43810;DHT22;29440;48.208;11.162;2023-02-28T04:21:53;-3.00;99.90
43810;DHT22;29440;48.208;11.162;2023-02-28T04:24:25;-3.00;99.90
43810;DHT22;29440;48.208;11.162;2023-02-28T04:26:53;-2.80;99.90
43810;DHT22;29440;48.208;11.162;2023-02-28T04:29:29;-2.90;99.90
43810;DHT22;29440;48.208;11.162;2023-02-28T04:31:55;-2.80;99.90
43810;DHT22;29440;48.208;11.162;2023-02-28T04:34:23;-2.80;99.90
43810;DHT22;29440;48.208;11.162;2023-02-28T04:36:50;-2.70;99.90
43810;DHT22;29440;48.208;11.162;2023-02-28T04:39:16;-2.70;99.90
43810;DHT22;29440;48.208;11.162;2023-02-28T04:41:44;-2.60;99.90
43810;DHT22;29440;48.208;11.162;2023-02-28T04:44:12;-2.70;99.90
43810;DHT22;29440;48.208;11.162;2023-02-28T04:46:38;-2.60;99.90
43810;DHT22;29440;48.208;11.162;2023-02-28T04:49:04;-2.60;99.90
43810;DHT22;29440;48.208;11.162;2023-02-28T04:51:29;-2.60;99.90
43810;DHT22;29440;48.208;11.162;2023-02-28T04:53:55;-2.60;99.90
43810;DHT22;29440;48.208;11.162;2023-02-28T04:56:21;-2.60;99.90
43810;DHT22;29440;48.208;11.162;2023-02-28T04:58:47;-2.60;99.90
43810;DHT22;29440;48.208;11.162;2023-02-28T05:03:44;-2.50;99.90
43810;DHT22;29440;48.208;11.162;2023-02-28T05:06:11;-2.50;99.90
43810;DHT22;29440;48.208;11.162;2023-02-28T05:08:37;-2.50;99.90
43810;DHT22;29440;48.208;11.162;2023-02-28T05:11:03;-2.50;99.90
43810;DHT22;29440;48.208;11.162;2023-02-28T05:13:29;-2.50;99.90
43810;DHT22;29440;48.208;11.162;2023-02-28T05:15:55;-2.40;99.90
43810;DHT22;29440;48.208;11.162;2023-02-28T05:18:21;-2.50;99.90
43810;DHT22;29440;48.208;11.162;2023-02-28T05:20:46;-2.40;99.90
43810;DHT22;29440;48.208;11.162;2023-02-28T05:23:13;-2.40;99.90
43810;DHT22;29440;48.208;11.162;2023-02-28T05:25:39;-2.40;99.90
43810;DHT22;29440;48.208;11.162;2023-02-28T05:28:05;-2.40;99.90
43810;DHT22;29440;48.208;11.162;2023-02-28T05:30:31;-2.40;99.90
43810;DHT22;29440;48.208;11.162;2023-02-28T05:32:57;-2.40;99.90
43810;DHT22;29440;48.208;11.162;2023-02-28T05:35:24;-2.40;99.90
43810;DHT22;29440;48.208;11.162;2023-02-28T05:37:50;-2.40;99.90
43810;DHT22;29440;48.208;11.162;2023-02-28T05:40:16;-2.40;99.90
43810;DHT22;29440;48.208;11.162;2023-02-28T05:42:41;-2.30;99.90
43810;DHT22;29440;48.208;11.162;2023-02-28T05:45:08;-2.40;99.90
43810;DHT22;29440;48.208;11.162;2023-02-28T05:47:34;-2.30;99.90
43810;DHT22;29440;48.208;11.162;2023-02-28T05:50:00;-2.30;99.90
43810;DHT22;29440;48.208;11.162;2023-02-28T05:52:26;-2.30;99.90
43810;DHT22;29440;48.208;11.162;2023-02-28T05:54:52;-2.30;99.90
43810;DHT22;29440;48.208;11.162;2023-02-28T05:57:17;-2.30;99.90
43810;DHT22;29440;48.208;11.162;2023-02-28T05:59:43;-2.30;99.90
43810;DHT22;29440;48.208;11.162;2023-02-28T06:02:12;-2.30;99.90
43810;DHT22;29440;48.208;11.162;2023-02-28T06:04:37;-2.30;99.90
43810;DHT22;29440;48.208;11.162;2023-02-28T06:07:03;-2.30;99.90
43810;DHT22;29440;48.208;11.162;2023-02-28T06:09:29;-2.30;99.90
43810;DHT22;29440;48.208;11.162;2023-02-28T06:11:58;-2.20;99.90
43810;DHT22;29440;48.208;11.162;2023-02-28T06:14:23;-2.30;99.90
43810;DHT22;29440;48.208;11.162;2023-02-28T06:16:49;-2.30;99.90
43810;DHT22;29440;48.208;11.162;2023-02-28T06:19:15;-2.20;99.90
43810;DHT22;29440;48.208;11.162;2023-02-28T06:21:40;-2.20;99.90
43810;DHT22;29440;48.208;11.162;2023-02-28T06:24:06;-2.20;99.90
43810;DHT22;29440;48.208;11.162;2023-02-28T06:26:32;-2.20;99.90
43810;DHT22;29440;48.208;11.162;2023-02-28T06:28:58;-2.20;99.90
43810;DHT22;29440;48.208;11.162;2023-02-28T06:31:23;-2.20;99.90
43810;DHT22;29440;48.208;11.162;2023-02-28T06:33:51;-2.20;99.90
43810;DHT22;29440;48.208;11.162;2023-02-28T06:36:17;-2.20;99.90
43810;DHT22;29440;48.208;11.162;2023-02-28T06:38:43;-2.20;99.90
43810;DHT22;29440;48.208;11.162;2023-02-28T06:41:10;-2.20;99.90
43810;DHT22;29440;48.208;11.162;2023-02-28T06:43:38;-2.20;99.90
43810;DHT22;29440;48.208;11.162;2023-02-28T06:46:06;-2.20;99.90
43810;DHT22;29440;48.208;11.162;2023-02-28T06:48:32;-2.20;99.90
43810;DHT22;29440;48.208;11.162;2023-02-28T06:51:06;-2.20;99.90
43810;DHT22;29440;48.208;11.162;2023-02-28T06:53:32;-2.20;99.90
43810;DHT22;29440;48.208;11.162;2023-02-28T06:55:58;-2.20;99.90
43810;DHT22;29440;48.208;11.162;2023-02-28T06:58:23;-2.20;99.90
43810;DHT22;29440;48.208;11.162;2023-02-28T07:00:51;-2.20;99.90
43810;DHT22;29440;48.208;11.162;2023-02-28T07:03:17;-2.20;99.90
43810;DHT22;29440;48.208;11.162;2023-02-28T07:05:44;-2.20;99.90
43810;DHT22;29440;48.208;11.162;2023-02-28T07:08:10;-2.10;99.90
43810;DHT22;29440;48.208;11.162;2023-02-28T07:10:38;-2.10;99.90
43810;DHT22;29440;48.208;11.162;2023-02-28T07:13:05;-2.10;99.90
43810;DHT22;29440;48.208;11.162;2023-02-28T07:15:31;-2.10;99.90
43810;DHT22;29440;48.208;11.162;2023-02-28T07:17:56;-2.20;99.90
43810;DHT22;29440;48.208;11.162;2023-02-28T07:20:23;-2.20;99.90
43810;DHT22;29440;48.208;11.162;2023-02-28T07:22:49;-2.20;99.90
43810;DHT22;29440;48.208;11.162;2023-02-28T07:25:22;-2.10;99.90
43810;DHT22;29440;48.208;11.162;2023-02-28T07:27:47;-2.10;99.90
43810;DHT22;29440;48.208;11.162;2023-02-28T07:30:13;-2.10;99.90
43810;DHT22;29440;48.208;11.162;2023-02-28T07:32:39;-2.10;99.90
43810;DHT22;29440;48.208;11.162;2023-02-28T07:35:04;-2.10;99.90
43810;DHT22;29440;48.208;11.162;2023-02-28T07:37:30;-2.10;99.90
43810;DHT22;29440;48.208;11.162;2023-02-28T07:40:03;-2.10;99.90
43810;DHT22;29440;48.208;11.162;2023-02-28T07:42:31;-2.10;99.90
43810;DHT22;29440;48.208;11.162;2023-02-28T07:44:57;-2.00;99.90
43810;DHT22;29440;48.208;11.162;2023-02-28T07:47:24;-2.00;99.90
43810;DHT22;29440;48.208;11.162;2023-02-28T07:49:50;-2.00;99.90
43810;DHT22;29440;48.208;11.162;2023-02-28T07:52:15;-2.00;99.90
43810;DHT22;29440;48.208;11.162;2023-02-28T07:54:41;-2.00;99.90
43810;DHT22;29440;48.208;11.162;2023-02-28T07:57:07;-2.00;99.90
43810;DHT22;29440;48.208;11.162;2023-02-28T07:59:33;-2.00;99.90
43810;DHT22;29440;48.208;11.162;2023-02-28T08:01:58;-1.90;99.90
43810;DHT22;29440;48.208;11.162;2023-02-28T08:04:24;-1.90;99.90
43810;DHT22;29440;48.208;11.162;2023-02-28T08:06:50;-1.90;99.90
43810;DHT22;29440;48.208;11.162;2023-02-28T08:09:18;-1.90;99.90
43810;DHT22;29440;48.208;11.162;2023-02-28T08:11:44;-1.90;99.90
43810;DHT22;29440;48.208;11.162;2023-02-28T08:14:09;-1.80;99.90
43810;DHT22;29440;48.208;11.162;2023-02-28T08:16:35;-1.80;99.90
43810;DHT22;29440;48.208;11.162;2023-02-28T08:19:00;-1.80;99.90
43810;DHT22;29440;48.208;11.162;2023-02-28T08:21:26;-1.80;99.90
43810;DHT22;29440;48.208;11.162;2023-02-28T08:23:52;-1.80;99.90
43810;DHT22;29440;48.208;11.162;2023-02-28T08:26:18;-1.80;99.90
43810;DHT22;29440;48.208;11.162;2023-02-28T08:28:44;-1.80;99.90
43810;DHT22;29440;48.208;11.162;2023-02-28T08:31:12;-1.90;99.90
43810;DHT22;29440;48.208;11.162;2023-02-28T08:33:39;-1.80;99.90
43810;DHT22;29440;48.208;11.162;2023-02-28T08:36:05;-1.80;99.90
43810;DHT22;29440;48.208;11.162;2023-02-28T08:38:31;-1.80;99.90
43810;DHT22;29440;48.208;11.162;2023-02-28T08:41:02;-1.70;99.90
43810;DHT22;29440;48.208;11.162;2023-02-28T08:43:28;-1.80;99.90
43810;DHT22;29440;48.208;11.162;2023-02-28T08:45:56;-1.80;99.90
43810;DHT22;29440;48.208;11.162;2023-02-28T08:48:23;-1.70;99.90
43810;DHT22;29440;48.208;11.162;2023-02-28T08:50:57;-1.70;99.90
43810;DHT22;29440;48.208;11.162;2023-02-28T08:53:23;-1.70;99.90
43810;DHT22;29440;48.208;11.162;2023-02-28T08:56:02;-1.70;99.90
43810;DHT22;29440;48.208;11.162;2023-02-28T08:58:29;-1.60;99.90
43810;DHT22;29440;48.208;11.162;2023-02-28T09:00:54;-1.60;99.90
43810;DHT22;29440;48.208;11.162;2023-02-28T09:03:20;-1.60;99.90
43810;DHT22;29440;48.208;11.162;2023-02-28T09:05:55;-1.60;99.90
43810;DHT22;29440;48.208;11.162;2023-02-28T09:08:21;-1.60;99.90
43810;DHT22;29440;48.208;11.162;2023-02-28T09:10:46;-1.60;99.90
43810;DHT22;29440;48.208;11.162;2023-02-28T09:13:12;-1.60;99.90
43810;DHT22;29440;48.208;11.162;2023-02-28T09:15:38;-1.50;99.90
43810;DHT22;29440;48.208;11.162;2023-02-28T09:18:04;-1.50;99.90
43810;DHT22;29440;48.208;11.162;2023-02-28T09:20:30;-1.50;99.90
43810;DHT22;29440;48.208;11.162;2023-02-28T09:22:55;-1.50;99.90
43810;DHT22;29440;48.208;11.162;2023-02-28T09:25:21;-1.50;99.90
43810;DHT22;29440;48.208;11.162;2023-02-28T09:27:46;-1.50;99.90
43810;DHT22;29440;48.208;11.162;2023-02-28T09:30:13;-1.50;99.90
43810;DHT22;29440;48.208;11.162;2023-02-28T09:32:38;-1.50;99.90
43810;DHT22;29440;48.208;11.162;2023-02-28T09:35:04;-1.40;99.90
43810;DHT22;29440;48.208;11.162;2023-02-28T09:37:30;-1.40;99.90
43810;DHT22;29440;48.208;11.162;2023-02-28T09:39:56;-1.40;99.90
43810;DHT22;29440;48.208;11.162;2023-02-28T09:42:27;-1.30;99.90
43810;DHT22;29440;48.208;11.162;2023-02-28T09:44:55;-1.20;99.90
43810;DHT22;29440;48.208;11.162;2023-02-28T09:47:41;-1.10;99.90
43810;DHT22;29440;48.208;11.162;2023-02-28T09:52:52;-0.90;99.90
43810;DHT22;29440;48.208;11.162;2023-02-28T09:55:32;-0.90;99.90
43810;DHT22;29440;48.208;11.162;2023-02-28T09:58:00;-0.90;99.90
43810;DHT22;29440;48.208;11.162;2023-02-28T10:00:33;-0.80;99.90
43810;DHT22;29440;48.208;11.162;2023-02-28T10:08:32;-0.70;99.90
43810;DHT22;29440;48.208;11.162;2023-02-28T10:11:00;-0.70;99.90
43810;DHT22;29440;48.208;11.162;2023-02-28T10:13:52;-0.60;99.90
43810;DHT22;29440;48.208;11.162;2023-02-28T10:18:57;-0.40;99.90
43810;DHT22;29440;48.208;11.162;2023-02-28T10:21:33;-0.40;99.90
43810;DHT22;29440;48.208;11.162;2023-02-28T10:24:04;-0.30;99.90
43810;DHT22;29440;48.208;11.162;2023-02-28T10:26:32;-0.30;99.90
43810;DHT22;29440;48.208;11.162;2023-02-28T10:28:58;-0.20;99.90
43810;DHT22;29440;48.208;11.162;2023-02-28T10:31:24;-0.10;99.90
43810;DHT22;29440;48.208;11.162;2023-02-28T10:33:49;0.10;99.90
43810;DHT22;29440;48.208;11.162;2023-02-28T10:36:17;0.30;99.90
43810;DHT22;29440;48.208;11.162;2023-02-28T10:38:45;0.50;99.90
43810;DHT22;29440;48.208;11.162;2023-02-28T10:44:20;0.90;99.90
43810;DHT22;29440;48.208;11.162;2023-02-28T10:46:45;1.00;99.90
43810;DHT22;29440;48.208;11.162;2023-02-28T10:49:17;1.20;99.90
43810;DHT22;29440;48.208;11.162;2023-02-28T10:51:45;1.20;99.90
43810;DHT22;29440;48.208;11.162;2023-02-28T10:54:33;1.20;99.90
43810;DHT22;29440;48.208;11.162;2023-02-28T10:57:16;1.10;99.90
43810;DHT22;29440;48.208;11.162;2023-02-28T10:59:44;1.10;99.90
43810;DHT22;29440;48.208;11.162;2023-02-28T11:02:31;1.10;99.90
43810;DHT22;29440;48.208;11.162;2023-02-28T11:04:57;1.00;99.90
43810;DHT22;29440;48.208;11.162;2023-02-28T11:07:23;0.90;99.90
43810;DHT22;29440;48.208;11.162;2023-02-28T11:09:57;1.00;99.90
43810;DHT22;29440;48.208;11.162;2023-02-28T11:12:26;1.00;99.90
43810;DHT22;29440;48.208;11.162;2023-02-28T11:14:58;1.10;99.90
43810;DHT22;29440;48.208;11.162;2023-02-28T11:17:26;1.10;99.90
43810;DHT22;29440;48.208;11.162;2023-02-28T11:19:59;1.00;99.90
43810;DHT22;29440;48.208;11.162;2023-02-28T11:22:31;1.20;99.90
43810;DHT22;29440;48.208;11.162;2023-02-28T11:25:00;1.20;99.90
43810;DHT22;29440;48.208;11.162;2023-02-28T11:29:56;1.40;99.90
43810;DHT22;29440;48.208;11.162;2023-02-28T11:32:24;1.50;99.90
43810;DHT22;29440;48.208;11.162;2023-02-28T11:35:17;1.80;99.90
43810;DHT22;29440;48.208;11.162;2023-02-28T11:37:47;1.70;99.90
43810;DHT22;29440;48.208;11.162;2023-02-28T11:40:27;1.70;99.90
43810;DHT22;29440;48.208;11.162;2023-02-28T11:46:00;2.00;99.90
43810;DHT22;29440;48.208;11.162;2023-02-28T11:51:35;2.00;99.90
43810;DHT22;29440;48.208;11.162;2023-02-28T11:54:35;2.00;99.90
43810;DHT22;29440;48.208;11.162;2023-02-28T11:59:54;2.00;99.90
43810;DHT22;29440;48.208;11.162;2023-02-28T12:02:28;2.10;99.90
43810;DHT22;29440;48.208;11.162;2023-02-28T12:07:46;2.20;99.90
43810;DHT22;29440;48.208;11.162;2023-02-28T12:10:30;2.30;99.90
43810;DHT22;29440;48.208;11.162;2023-02-28T12:13:18;2.40;99.90
43810;DHT22;29440;48.208;11.162;2023-02-28T12:26:48;2.80;99.90
43810;DHT22;29440;48.208;11.162;2023-02-28T12:29:25;2.90;99.90
43810;DHT22;29440;48.208;11.162;2023-02-28T12:31:56;2.90;99.90
43810;DHT22;29440;48.208;11.162;2023-02-28T12:34:32;3.00;99.90
43810;DHT22;29440;48.208;11.162;2023-02-28T12:36:58;3.00;99.90
43810;DHT22;29440;48.208;11.162;2023-02-28T12:39:28;2.90;99.90
43810;DHT22;29440;48.208;11.162;2023-02-28T12:42:01;2.90;99.90
43810;DHT22;29440;48.208;11.162;2023-02-28T12:44:40;2.80;99.90
43810;DHT22;29440;48.208;11.162;2023-02-28T12:47:15;2.90;99.90
43810;DHT22;29440;48.208;11.162;2023-02-28T12:49:56;2.90;99.90
43810;DHT22;29440;48.208;11.162;2023-02-28T12:52:48;3.10;99.90
43810;DHT22;29440;48.208;11.162;2023-02-28T12:55:27;3.00;99.90
43810;DHT22;29440;48.208;11.162;2023-02-28T13:10:04;3.20;99.90
43810;DHT22;29440;48.208;11.162;2023-02-28T13:12:31;3.20;99.90
43810;DHT22;29440;48.208;11.162;2023-02-28T13:15:16;3.30;99.90
43810;DHT22;29440;48.208;11.162;2023-02-28T13:17:49;3.30;99.90
43810;DHT22;29440;48.208;11.162;2023-02-28T13:20:46;3.40;99.90
43810;DHT22;29440;48.208;11.162;2023-02-28T13:23:04;3.50;99.90
43810;DHT22;29440;48.208;11.162;2023-02-28T13:25:52;3.60;99.90
43810;DHT22;29440;48.208;11.162;2023-02-28T13:31:16;3.80;99.90
43810;DHT22;29440;48.208;11.162;2023-02-28T13:38:45;3.80;99.90
43810;DHT22;29440;48.208;11.162;2023-02-28T13:44:13;3.90;99.90
43810;DHT22;29440;48.208;11.162;2023-02-28T13:54:57;3.80;99.90
43810;DHT22;29440;48.208;11.162;2023-02-28T14:00:33;3.80;99.90
43810;DHT22;29440;48.208;11.162;2023-02-28T14:06:25;3.80;99.90
43810;DHT22;29440;48.208;11.162;2023-02-28T14:09:03;3.70;99.90
43810;DHT22;29440;48.208;11.162;2023-02-28T14:11:34;3.70;99.90
43810;DHT22;29440;48.208;11.162;2023-02-28T14:14:01;3.70;99.90
43810;DHT22;29440;48.208;11.162;2023-02-28T14:19:20;3.50;99.90
43810;DHT22;29440;48.208;11.162;2023-02-28T14:24:34;3.50;99.90
43810;DHT22;29440;48.208;11.162;2023-02-28T14:27:33;3.50;99.90
43810;DHT22;29440;48.208;11.162;2023-02-28T14:30:03;3.40;99.90
43810;DHT22;29440;48.208;11.162;2023-02-28T14:33:00;3.40;99.90
43810;DHT22;29440;48.208;11.162;2023-02-28T14:35:47;3.40;99.90
43810;DHT22;29440;48.208;11.162;2023-02-28T14:38:21;3.40;99.90
43810;DHT22;29440;48.208;11.162;2023-02-28T14:40:52;3.30;99.90
43810;DHT22;29440;48.208;11.162;2023-02-28T14:43:24;3.30;99.90
43810;DHT22;29440;48.208;11.162;2023-02-28T14:45:52;3.30;99.90
43810;DHT22;29440;48.208;11.162;2023-02-28T14:48:20;3.30;99.90
43810;DHT22;29440;48.208;11.162;2023-02-28T14:50:52;3.30;99.90
43810;DHT22;29440;48.208;11.162;2023-02-28T14:53:21;3.30;99.90
43810;DHT22;29440;48.208;11.162;2023-02-28T14:55:50;3.30;99.90
43810;DHT22;29440;48.208;11.162;2023-02-28T14:58:27;3.30;99.90
43810;DHT22;29440;48.208;11.162;2023-02-28T15:00:55;3.30;99.90
43810;DHT22;29440;48.208;11.162;2023-02-28T15:03:31;3.30;99.90
43810;DHT22;29440;48.208;11.162;2023-02-28T15:06:12;3.30;99.90
43810;DHT22;29440;48.208;11.162;2023-02-28T15:08:38;3.40;99.90
43810;DHT22;29440;48.208;11.162;2023-02-28T15:11:16;3.30;99.90
43810;DHT22;29440;48.208;11.162;2023-02-28T15:13:49;3.30;99.90
43810;DHT22;29440;48.208;11.162;2023-02-28T15:16:24;3.30;99.90
43810;DHT22;29440;48.208;11.162;2023-02-28T15:18:57;3.20;99.90
43810;DHT22;29440;48.208;11.162;2023-02-28T15:23:54;3.30;99.90
43810;DHT22;29440;48.208;11.162;2023-02-28T15:26:27;3.30;99.90
43810;DHT22;29440;48.208;11.162;2023-02-28T15:29:04;3.30;99.90
43810;DHT22;29440;48.208;11.162;2023-02-28T15:31:55;3.20;99.90
43810;DHT22;29440;48.208;11.162;2023-02-28T15:34:42;3.30;99.90
43810;DHT22;29440;48.208;11.162;2023-02-28T15:40:16;3.20;99.90
43810;DHT22;29440;48.208;11.162;2023-02-28T15:42:43;3.20;99.90
43810;DHT22;29440;48.208;11.162;2023-02-28T15:45:33;3.20;99.90
43810;DHT22;29440;48.208;11.162;2023-02-28T15:48:02;3.10;99.90
43810;DHT22;29440;48.208;11.162;2023-02-28T15:50:28;3.00;99.90
43810;DHT22;29440;48.208;11.162;2023-02-28T15:52:54;3.10;99.90
43810;DHT22;29440;48.208;11.162;2023-02-28T15:55:24;3.00;99.90
43810;DHT22;29440;48.208;11.162;2023-02-28T15:57:53;3.00;99.90
43810;DHT22;29440;48.208;11.162;2023-02-28T16:00:23;3.00;99.90
43810;DHT22;29440;48.208;11.162;2023-02-28T16:02:49;2.90;99.90
43810;DHT22;29440;48.208;11.162;2023-02-28T16:05:27;2.90;99.90
43810;DHT22;29440;48.208;11.162;2023-02-28T16:08:06;2.90;99.90
43810;DHT22;29440;48.208;11.162;2023-02-28T16:10:36;2.90;99.90
43810;DHT22;29440;48.208;11.162;2023-02-28T16:13:02;2.80;99.90
43810;DHT22;29440;48.208;11.162;2023-02-28T16:15:31;2.80;99.90
43810;DHT22;29440;48.208;11.162;2023-02-28T16:17:59;2.60;99.90
43810;DHT22;29440;48.208;11.162;2023-02-28T16:20:28;2.60;99.90
43810;DHT22;29440;48.208;11.162;2023-02-28T16:22:55;2.60;99.90
43810;DHT22;29440;48.208;11.162;2023-02-28T16:25:25;2.60;99.90
43810;DHT22;29440;48.208;11.162;2023-02-28T16:27:52;2.50;99.90
43810;DHT22;29440;48.208;11.162;2023-02-28T16:30:25;2.60;99.90
43810;DHT22;29440;48.208;11.162;2023-02-28T16:32:52;2.50;99.90
43810;DHT22;29440;48.208;11.162;2023-02-28T16:35:19;2.40;99.90
43810;DHT22;29440;48.208;11.162;2023-02-28T16:37:44;2.40;99.90
43810;DHT22;29440;48.208;11.162;2023-02-28T16:40:19;2.40;99.90
43810;DHT22;29440;48.208;11.162;2023-02-28T16:42:47;2.30;99.90
43810;DHT22;29440;48.208;11.162;2023-02-28T16:45:20;2.30;99.90
43810;DHT22;29440;48.208;11.162;2023-02-28T16:47:46;2.20;99.90
43810;DHT22;29440;48.208;11.162;2023-02-28T16:50:20;2.20;99.90
43810;DHT22;29440;48.208;11.162;2023-02-28T16:52:46;2.10;99.90
43810;DHT22;29440;48.208;11.162;2023-02-28T16:55:12;2.10;99.90
43810;DHT22;29440;48.208;11.162;2023-02-28T16:57:38;2.10;99.90
43810;DHT22;29440;48.208;11.162;2023-02-28T17:00:07;2.00;99.90
43810;DHT22;29440;48.208;11.162;2023-02-28T17:02:33;2.00;99.90
43810;DHT22;29440;48.208;11.162;2023-02-28T17:04:59;1.90;99.90
43810;DHT22;29440;48.208;11.162;2023-02-28T17:07:24;2.00;99.90
43810;DHT22;29440;48.208;11.162;2023-02-28T17:09:50;2.00;99.90
43810;DHT22;29440;48.208;11.162;2023-02-28T17:12:17;1.80;99.90
43810;DHT22;29440;48.208;11.162;2023-02-28T17:14:42;1.80;99.90
43810;DHT22;29440;48.208;11.162;2023-02-28T17:17:19;1.70;99.90
43810;DHT22;29440;48.208;11.162;2023-02-28T17:19:45;1.70;99.90
43810;DHT22;29440;48.208;11.162;2023-02-28T17:22:11;1.70;99.90
43810;DHT22;29440;48.208;11.162;2023-02-28T17:24:36;1.60;99.90
43810;DHT22;29440;48.208;11.162;2023-02-28T17:27:02;1.50;99.90
43810;DHT22;29440;48.208;11.162;2023-02-28T17:29:28;1.50;99.90